Lake Clarke Shores, Florida
Current Conditions -  °F | °C
As of 8:53 AM on Sunday 25 Jan 2015 (Local Time) from KPBI Reporting Station
Few Clouds Few Clouds  
Wind Chill: 53°   Ceiling: Unl
Heat Index: 53°   Visibility: 10mi
Dew Point: 40°   Wind: 14mph
Humidity: 61%   Direction: 330°NNW
Pressure: 30.09"   Gusts: NA
Location:  26.6662°N, 80.0908°W
Report Text: KPBI 251353Z 33012KT 10SM FEW027 FEW250 12/04 A3009 RMK AO2 SLP189 T01170044
Loading
Personal Weather Stations






























Interactive Weather Map New forecast layout! Learn more

10-Day Weather Forecast

Advertisements
Track Severe Weather on mobile